Brassfield

Old Lantern Court
Raleigh, NC 27614

Area

Raleigh

Price Range

$325,000 - $525,000

Sqft

2,330 - 4,250 sq ft

Brassfield driveway front Brassfield front 3 Brassfield front view Brassfield entrance sign Brassfield front yard Brassfield ranch front Brassfield side view 2 Brassfield side view

Brassfield

Brassfield is a collection of homes built between 1985 and 1988.  The homes offer Located on the corner of Norwood Rd and Brass Kettle Rd, this neighborhood is convenient to I-540, North Hills, restaurants, shopping, and entertainment.   If you want value and convenience, Brassfield is for you!  Wake County Schools.

Ready for Your Personal Tour of Brassfield?

If so, contact any member of the expert North Raleigh real estate team here at LindaCraft.com to schedule your tour of Brassfield today!

Below are a few of Brassfield spotlight properties for sale. Visit the Brassfield Community Search page to see all home for sale in Brassfield.

View more neighborhoods in Raleigh.

Sample Brassfield Homes for Sale

Recently Sold in Brassfield

Price Beds Full Baths ½ Baths Sq Ft Address City Zip Sold Date
$309,900 3 1213 Hillingdon Way Raleigh 27614 04/12/2019
$168,500 2 2 1 1,264 2120 Piney Brook Road Raleigh 27614 04/19/2019
$160,000 2 2 0 1,376 2110 Breezeway Drive Raleigh 27614 04/18/2019
$450,000 4 2 1 2,956 12545 Birchfalls Drive Raleigh 27614 04/18/2019
$870,000 4 4 2 7,194 1116 Silver Oaks Court Raleigh 27614 04/17/2019
$179,000 2 2 1 1,375 11233 Lofty Heights Place Raleigh 27614 04/17/2019
$420,000 4 3 1 3,329 1621 Cooper Falls Lane Raleigh 27614 04/16/2019
$1,000,000 4 3 1 4,776 10760 Trego Trail Raleigh 27614 04/15/2019
$215,350 3 2 1 1,651 11032 Louson Place Raleigh 27614 04/15/2019
$326,000 4 2 1 2,046 2516 Brighthaven Drive Raleigh 27614 04/15/2019
$758,500 4 4 1 4,259 9708 Koupela Drive Raleigh 27614 04/15/2019
$227,000 4 3 1 2,226 3034 Winding Waters Way Raleigh 27614 04/15/2019
$705,244 4 2 1 4,201 6416 Magna Carta Way Raleigh 27614 04/12/2019
$432,000 4 3 1 3,324 1813 Wescott Drive Raleigh 27614 04/12/2019
$542,500 5 5 1 5,375 12516 Angel Falls Road Raleigh 27614 04/12/2019
$725,000 5 4 1 4,036 204 Claflin Court Raleigh 27614 04/12/2019
$484,000 4 4 0 3,387 2616 Royal Forrest Drive Raleigh 27614 04/12/2019
$386,000 3 2 1 2,656 11832 Doc Arnold Drive Raleigh 27614 04/12/2019
$268,500 3 2 1 1,729 10413 Neland Street Raleigh 27614 04/12/2019
$250,000 3 2 1 1,897 2011 Periwinkle Court Franklinton 27525 04/11/2019
$400,000 4 2 1 2,421 10208 Sorrills Creek Lane Raleigh 27614 04/11/2019
$370,000 4 4 0 2,764 12809 Beech Wood Court Raleigh 27614 04/05/2019
$310,000 4 2 1 2,380 11929 Sycamore Grove Lane Raleigh 27614 09/20/2018
$260,000 3 2 1 1,876 11032 Southwalk Lane Raleigh 27614 04/10/2019
$869,200 0 7453 Sextons Creek Drive Raleigh 27614 04/02/2019
$310,000 4 2 1 2,054 1700 Farmington Grove Drive Raleigh 27614 04/09/2019
$629,000 5 4 1 4,919 11918 Wake Bluff Drive Raleigh 27614 04/08/2019
$1,175,000 4 4 1 5,192 1009 Exeter Field Circle Raleigh 27614 04/05/2019
$256,000 3 2 1 1,727 12637 Gallant Place Raleigh 27614 04/05/2019
$420,000 5 3 0 2,907 10800 Grassy Creek Place Raleigh 27614 04/05/2019
$469,750 3 3 0 3,099 2057 Hopeton Avenue Raleigh 27614 04/05/2019
$424,900 4 2 1 2,903 10601 Charlesgate Court Raleigh 27614 04/05/2019
$297,000 3 2 1 2,253 10909 Flower Bed Court Raleigh 27614 04/05/2019
$232,400 3 2 1 1,837 12821 Tee Time Way Raleigh 27614 04/05/2019
$390,000 4 2 1 2,566 1720 Falls River Avenue Raleigh 27614 04/04/2019
$315,000 3 2 1 1,958 1909 Farmington Grove Drive Raleigh 27614 04/04/2019
$383,000 4 2 1 2,992 1437 Chelton Oaks Place Raleigh 27614 04/01/2019
$207,500 3 2 1 1,921 2626 Vega Court Raleigh 27614 04/01/2019
$1,069,000 4 4 0 4,568 6036 Valencia Court Raleigh 27614 03/29/2019
$915,000 4 5 1 5,452 1605 Sharnbrook Court Raleigh 27614 04/01/2019
$180,000 3 2 1 1,466 10943 Pendragon Lane Raleigh 27614 04/01/2019
$215,000 3 2 1 1,420 2715 Willow Pines Place Raleigh 27614 04/01/2019
$300,000 3 3 0 2,256 3513 Cathedral Bell Drive Raleigh 27614 03/29/2019
$203,000 3 2 1 1,640 2622 Forest Shadows Lane Raleigh 27614 03/29/2019
$196,000 2 2 1 1,448 2239 Banks Hill Row Raleigh 27614 03/29/2019
$276,000 3 2 1 1,716 2753 Cypress Point Lane Raleigh 27614 03/29/2019
$684,000 4 3 1 4,245 11208 Brass Kettle Drive Raleigh 27614 03/29/2019
$1,700,000 5 6 1 10,593 12909 Anglewood Court Raleigh 27614 03/29/2019
$600,000 4 3 1 4,141 1008 Old Mill Creek Court Raleigh 27614 03/29/2019
$208,745 2 2 1 1,605 2923 Winding Waters Way Raleigh 27614 03/28/2019
$374,900 4 2 1 3,024 2317 Filigree Court Raleigh 27614 03/28/2019
$193,000 2 2 1 1,329 2223 Banks Hill Row Raleigh 27614 03/28/2019
$495,000 5 4 0 3,970 10813 Dalmore Place Raleigh 27614 03/28/2019
$440,000 4 3 1 3,076 2201 Saltree Place Raleigh 27614 03/27/2019
$300,000 3 2 1 2,275 12509 Village Meadows Court Raleigh 27614 03/26/2019
$252,500 3 2 0 1,360 11019 Connally Lane Raleigh 27614 03/26/2019
$230,000 3 3 1 2,205 3030 Settle In Lane Raleigh 27614 03/26/2019
$163,502 3 2 1 1,680 11710 Mezzanine Drive Raleigh 27614 03/26/2019
$749,000 6 5 1 6,309 10905 Enchanted Hollow Way Raleigh 27614 03/25/2019
$1,245,361 5 5 2 5,058 7208 Summer Tanager Trail Raleigh 27614 03/25/2019

The data relating to real estate for sale on this website comes in part from the IDX© Program of the Triangle Multiple Listing Services, Inc. of Cary. Real estate listings held by brokerage firms other than Linda Craft & Team are marked with the IDX© logo or the IDX© thumbnail logo and the detailed information about them includes the name of the listing brokers.
The listing broker has attempted to offer accurate data, but buyers are advised to confirm all items.
This data was last updated on: 04/20/19 02:25 PM. A full data refresh was last performed on: 04/19/19 11:59 AM.
** Information deemed reliable but not guaranteed ** Closed (sold) listings may have been listed and/or sold by a real estate firm other than the firm(s) featured on this website. Closed data is not available until the sale of the property is recorded in the MLS. Home sale data is not an appraisal, CMA, competitive or comparative market analysis, or home valuation of any property.
Copyright © 2019 Triangle MLS, Inc. of North Carolina. All rights reserved.
Copyright © 2019 | Information deemed reliable, but not guaranteed. | Privacy Policy
Real Estate Web Design by Dakno Marketing.